createdAt,value
2023-05-13T00:00:41.813Z,93.58
2023-05-13T00:03:08.491Z,94.25
2023-05-13T00:05:35.342Z,93.79
2023-05-13T00:08:06.982Z,93.82
2023-05-13T00:10:34.469Z,94.07
2023-05-13T00:13:01.165Z,94.56
2023-05-13T00:15:28.056Z,94.78
2023-05-13T00:17:54.713Z,95.36
2023-05-13T00:20:21.703Z,95.30
2023-05-13T00:22:48.554Z,95.71
2023-05-13T00:25:15.153Z,96.51
2023-05-13T00:27:41.767Z,97.92
2023-05-13T00:30:09.455Z,97.73
2023-05-13T00:32:36.460Z,97.76
2023-05-13T00:35:03.993Z,97.82
2023-05-13T00:37:30.602Z,98.28
2023-05-13T00:39:57.232Z,98.88
2023-05-13T00:42:24.365Z,99.07
2023-05-13T00:44:51.893Z,98.90
2023-05-13T00:47:18.546Z,98.96
2023-05-13T00:49:45.174Z,99.46
2023-05-13T00:52:11.771Z,99.23
2023-05-13T00:54:38.393Z,98.66
2023-05-13T00:57:05.342Z,98.59
2023-05-13T00:59:32.028Z,99.05
2023-05-13T01:02:14.605Z,99.74
2023-05-13T01:05:02.935Z,100.00
2023-05-13T01:07:41.739Z,100.00
2023-05-13T01:10:25.772Z,100.00
2023-05-13T01:12:56.867Z,100.00
2023-05-13T01:15:27.186Z,100.00
2023-05-13T01:17:55.495Z,100.00
2023-05-13T01:20:24.016Z,100.00
2023-05-13T01:22:51.391Z,100.00
2023-05-13T01:25:18.407Z,100.00
2023-05-13T01:27:45.833Z,100.00
2023-05-13T01:30:13.160Z,100.00
2023-05-13T01:32:39.912Z,100.00
2023-05-13T01:35:07.499Z,100.00
2023-05-13T01:37:34.784Z,100.00
2023-05-13T01:40:02.491Z,100.00
2023-05-13T01:42:30.724Z,100.00
2023-05-13T01:44:57.902Z,100.00
2023-05-13T01:47:24.552Z,100.00
2023-05-13T01:49:51.324Z,100.00
2023-05-13T01:52:18.077Z,100.00
2023-05-13T01:54:45.309Z,100.00
2023-05-13T01:57:13.554Z,100.00
2023-05-13T01:59:40.217Z,100.00
2023-05-13T02:02:06.878Z,100.00
2023-05-13T02:04:33.630Z,100.00
2023-05-13T02:07:00.637Z,100.00
2023-05-13T02:09:29.388Z,100.00
2023-05-13T02:11:56.006Z,100.00
2023-05-13T02:14:22.613Z,100.00
2023-05-13T02:16:49.450Z,100.00
2023-05-13T02:19:16.224Z,100.00
2023-05-13T02:21:43.791Z,100.00
2023-05-13T02:24:10.619Z,100.00
2023-05-13T02:26:37.329Z,100.00
2023-05-13T02:29:04.011Z,100.00
2023-05-13T02:31:31.152Z,100.00
2023-05-13T02:33:57.774Z,100.00
2023-05-13T02:36:24.818Z,100.00
2023-05-13T02:38:52.076Z,100.00
2023-05-13T02:41:19.320Z,100.00
2023-05-13T02:43:47.479Z,100.00
2023-05-13T02:46:15.398Z,100.00
2023-05-13T02:48:44.116Z,100.00
2023-05-13T02:51:10.933Z,100.00
2023-05-13T02:53:38.196Z,100.00
2023-05-13T02:56:05.811Z,100.00
2023-05-13T02:58:32.432Z,100.00
2023-05-13T03:00:59.348Z,100.00
2023-05-13T03:03:26.320Z,100.00
2023-05-13T03:05:53.137Z,100.00
2023-05-13T03:08:19.762Z,100.00
2023-05-13T03:10:46.346Z,100.00
2023-05-13T03:13:12.949Z,100.00
2023-05-13T03:15:40.535Z,100.00
2023-05-13T03:18:09.287Z,100.00
2023-05-13T03:20:36.081Z,100.00
2023-05-13T03:23:03.057Z,100.00
2023-05-13T03:25:30.375Z,100.00
2023-05-13T03:27:57.765Z,100.00
2023-05-13T03:30:26.025Z,100.00
2023-05-13T03:33:03.226Z,100.00
2023-05-13T03:35:30.024Z,100.00
2023-05-13T03:37:57.124Z,100.00
2023-05-13T03:40:24.281Z,100.00
2023-05-13T03:42:51.520Z,100.00
2023-05-13T03:45:18.789Z,100.00
2023-05-13T03:47:47.585Z,100.00
2023-05-13T03:50:15.646Z,100.00
2023-05-13T03:52:45.486Z,100.00
2023-05-13T03:55:15.184Z,100.00
2023-05-13T03:57:44.945Z,100.00
2023-05-13T04:00:12.696Z,100.00
2023-05-13T04:02:42.520Z,100.00
2023-05-13T04:05:09.793Z,100.00
2023-05-13T04:07:36.507Z,100.00
2023-05-13T04:10:03.369Z,100.00
2023-05-13T04:12:31.015Z,100.00
2023-05-13T04:14:57.620Z,100.00
2023-05-13T04:17:24.407Z,100.00
2023-05-13T04:19:54.904Z,100.00
2023-05-13T04:22:21.886Z,100.00
2023-05-13T04:24:52.101Z,100.00
2023-05-13T04:27:18.907Z,100.00
2023-05-13T04:29:46.090Z,100.00
2023-05-13T04:32:16.242Z,100.00
2023-05-13T04:34:43.376Z,100.00
2023-05-13T04:37:10.004Z,100.00
2023-05-13T04:39:36.586Z,100.00
2023-05-13T04:42:03.482Z,100.00
2023-05-13T04:44:33.233Z,100.00
2023-05-13T04:47:00.051Z,100.00
2023-05-13T04:49:26.914Z,100.00
2023-05-13T04:51:54.605Z,100.00
2023-05-13T04:54:21.936Z,100.00
2023-05-13T04:56:48.964Z,100.00
2023-05-13T04:59:16.244Z,100.00
2023-05-13T05:01:43.301Z,100.00
2023-05-13T05:04:10.321Z,100.00
2023-05-13T05:06:37.947Z,100.00
2023-05-13T05:09:04.816Z,100.00
2023-05-13T05:11:31.530Z,100.00
2023-05-13T05:13:58.146Z,100.00
2023-05-13T05:16:25.298Z,100.00
2023-05-13T05:18:51.997Z,100.00
2023-05-13T05:21:19.352Z,100.00
2023-05-13T05:23:46.580Z,100.00
2023-05-13T05:26:13.241Z,100.00
2023-05-13T05:28:43.180Z,100.00
2023-05-13T05:31:10.112Z,100.00
2023-05-13T05:33:37.239Z,100.00
2023-05-13T05:36:06.179Z,100.00
2023-05-13T05:38:33.427Z,98.88
2023-05-13T05:41:00.735Z,98.71
2023-05-13T05:43:27.778Z,98.39
2023-05-13T05:45:54.506Z,96.16
2023-05-13T05:48:22.243Z,94.58
2023-05-13T05:50:49.429Z,93.62
2023-05-13T05:53:22.988Z,92.45
2023-05-13T05:55:51.631Z,92.54
2023-05-13T05:58:19.883Z,91.61
2023-05-13T06:00:47.131Z,89.89
2023-05-13T06:03:14.018Z,87.67
2023-05-13T06:05:40.924Z,84.53
2023-05-13T06:08:07.550Z,83.94
2023-05-13T06:10:35.401Z,82.85
2023-05-13T06:13:03.220Z,79.26
2023-05-13T06:15:30.255Z,78.48
2023-05-13T06:17:57.034Z,77.83
2023-05-13T06:20:24.023Z,76.90
2023-05-13T06:22:50.946Z,75.03
2023-05-13T06:25:18.083Z,73.61
2023-05-13T06:27:44.673Z,71.89
2023-05-13T06:30:13.269Z,72.14
2023-05-13T06:32:53.588Z,71.93
2023-05-13T06:35:27.375Z,71.52
2023-05-13T06:37:54.223Z,70.72
2023-05-13T06:40:21.171Z,68.12
2023-05-13T06:42:48.246Z,66.05
2023-05-13T06:45:23.365Z,63.92
2023-05-13T06:47:51.551Z,62.21
2023-05-13T06:50:18.860Z,62.58
2023-05-13T06:52:46.913Z,61.62
2023-05-13T06:55:13.591Z,61.99
2023-05-13T06:57:43.497Z,62.20
2023-05-13T07:00:11.068Z,62.23
2023-05-13T07:02:37.786Z,60.28
2023-05-13T07:05:05.444Z,60.26
2023-05-13T07:07:31.997Z,59.62
2023-05-13T07:09:58.658Z,58.06
2023-05-13T07:12:25.311Z,57.27
2023-05-13T07:14:52.195Z,59.21
2023-05-13T07:17:18.815Z,59.39
2023-05-13T07:19:45.603Z,56.06
2023-05-13T07:22:12.239Z,54.28
2023-05-13T07:24:39.034Z,54.02
2023-05-13T07:27:05.872Z,52.56
2023-05-13T07:29:33.462Z,51.81
2023-05-13T07:32:06.820Z,52.00
2023-05-13T07:34:33.466Z,52.17
2023-05-13T07:37:00.144Z,50.62
2023-05-13T07:39:27.376Z,49.17
2023-05-13T07:41:54.212Z,49.50
2023-05-13T07:44:21.068Z,48.54
2023-05-13T07:46:48.663Z,48.13
2023-05-13T07:49:15.528Z,47.03
2023-05-13T07:51:42.399Z,47.04
2023-05-13T07:54:09.379Z,46.82
2023-05-13T07:56:38.111Z,46.75
2023-05-13T07:59:04.995Z,46.39
2023-05-13T08:01:31.661Z,44.66
2023-05-13T08:03:58.549Z,45.31
2023-05-13T08:06:25.374Z,45.75
2023-05-13T08:08:52.071Z,45.17
2023-05-13T08:11:18.682Z,44.59
2023-05-13T08:13:45.402Z,46.25
2023-05-13T08:16:12.221Z,47.07
2023-05-13T08:18:38.977Z,46.99
2023-05-13T08:21:05.659Z,45.21
2023-05-13T08:23:44.234Z,43.53
2023-05-13T08:26:12.076Z,46.26
2023-05-13T08:28:38.792Z,46.54
2023-05-13T08:31:05.395Z,46.63
2023-05-13T08:33:32.467Z,45.08
2023-05-13T08:35:59.695Z,44.87
2023-05-13T08:38:26.402Z,43.25
2023-05-13T08:40:53.385Z,41.78
2023-05-13T08:43:20.298Z,41.30
2023-05-13T08:45:47.936Z,41.78
2023-05-13T08:48:15.517Z,42.39
2023-05-13T08:50:42.660Z,41.47
2023-05-13T08:53:10.570Z,41.42
2023-05-13T08:55:39.336Z,40.86
2023-05-13T08:58:08.362Z,39.91
2023-05-13T09:00:35.362Z,38.97
2023-05-13T09:03:03.011Z,38.65
2023-05-13T09:05:32.051Z,39.53
2023-05-13T09:07:58.825Z,41.95
2023-05-13T09:10:25.444Z,41.31
2023-05-13T09:12:53.756Z,41.20
2023-05-13T09:15:24.691Z,42.53
2023-05-13T09:18:05.803Z,42.61
2023-05-13T09:20:33.157Z,42.01
2023-05-13T09:23:05.123Z,42.19
2023-05-13T09:25:32.064Z,42.00
2023-05-13T09:28:00.311Z,41.75
2023-05-13T09:30:46.800Z,42.24
2023-05-13T09:33:19.804Z,42.19
2023-05-13T09:35:52.965Z,41.55
2023-05-13T09:38:19.882Z,41.79
2023-05-13T09:40:59.718Z,41.78
2023-05-13T09:43:28.179Z,41.26
2023-05-13T09:46:00.912Z,40.28
2023-05-13T09:48:28.902Z,41.14
2023-05-13T09:50:57.906Z,40.02
2023-05-13T09:53:26.015Z,39.97
2023-05-13T09:55:56.884Z,42.10
2023-05-13T09:58:31.228Z,43.23
2023-05-13T10:00:58.209Z,43.35
2023-05-13T10:03:24.879Z,42.86
2023-05-13T10:05:51.817Z,42.97
2023-05-13T10:08:18.458Z,40.60
2023-05-13T10:10:48.028Z,39.06
2023-05-13T10:13:16.138Z,37.65
2023-05-13T10:15:52.664Z,37.87
2023-05-13T10:18:20.211Z,39.05
2023-05-13T10:20:47.077Z,40.00
2023-05-13T10:23:13.773Z,39.84
2023-05-13T10:25:40.385Z,39.21
2023-05-13T10:28:07.037Z,38.38
2023-05-13T10:30:35.913Z,38.05
2023-05-13T10:33:03.168Z,37.99
2023-05-13T10:35:34.607Z,37.35
2023-05-13T10:38:08.136Z,36.82
2023-05-13T10:40:43.385Z,36.52
2023-05-13T10:43:16.000Z,36.31
2023-05-13T10:45:50.095Z,36.94
2023-05-13T10:48:17.689Z,35.85
2023-05-13T10:50:52.276Z,36.50
2023-05-13T10:53:21.781Z,35.98
2023-05-13T10:55:53.185Z,35.53
2023-05-13T10:58:22.441Z,35.80
2023-05-13T11:00:50.934Z,38.78
2023-05-13T11:03:17.744Z,38.48
2023-05-13T11:05:47.081Z,37.31
2023-05-13T11:08:36.162Z,36.04
2023-05-13T11:11:02.768Z,36.60
2023-05-13T11:13:36.952Z,38.37
2023-05-13T11:16:05.885Z,37.78
2023-05-13T11:18:33.454Z,38.78
2023-05-13T11:21:07.197Z,38.75
2023-05-13T11:23:37.437Z,37.69
2023-05-13T11:26:16.228Z,37.77
2023-05-13T11:29:12.792Z,35.14
2023-05-13T11:31:48.630Z,36.64
2023-05-13T11:34:18.916Z,36.78
2023-05-13T11:36:47.557Z,36.83
2023-05-13T11:39:22.591Z,36.08
2023-05-13T11:41:50.485Z,36.15
2023-05-13T11:44:21.863Z,36.38
2023-05-13T11:47:02.212Z,35.61
2023-05-13T11:49:35.000Z,37.08
2023-05-13T11:52:03.044Z,37.17
2023-05-13T11:54:29.733Z,36.81
2023-05-13T11:56:56.766Z,37.07
2023-05-13T11:59:24.290Z,37.54
2023-05-13T12:02:01.232Z,36.99
2023-05-13T12:04:29.966Z,37.16
2023-05-13T12:06:57.309Z,36.53
2023-05-13T12:09:24.195Z,37.09
2023-05-13T12:11:52.702Z,37.68
2023-05-13T12:14:20.019Z,36.32
2023-05-13T12:16:46.631Z,35.29
2023-05-13T12:19:13.282Z,35.77
2023-05-13T12:21:39.948Z,36.00
2023-05-13T12:24:19.586Z,35.98
2023-05-13T12:26:46.195Z,35.01
2023-05-13T12:29:12.844Z,35.12
2023-05-13T12:31:41.824Z,34.71
2023-05-13T12:34:08.464Z,34.54
2023-05-13T12:36:38.617Z,34.83
2023-05-13T12:39:09.701Z,35.64
2023-05-13T12:41:41.010Z,35.22
2023-05-13T12:44:13.508Z,35.56
2023-05-13T12:46:59.385Z,35.79
2023-05-13T12:49:26.350Z,35.49
2023-05-13T12:51:52.961Z,35.79
2023-05-13T12:54:19.612Z,35.25
2023-05-13T12:56:46.558Z,34.39
2023-05-13T12:59:14.582Z,35.00
2023-05-13T13:01:42.862Z,36.02
2023-05-13T13:04:10.073Z,36.08
2023-05-13T13:06:36.984Z,36.24
2023-05-13T13:09:03.629Z,36.24
2023-05-13T13:11:30.273Z,35.82
2023-05-13T13:13:56.950Z,35.67
2023-05-13T13:16:23.781Z,35.47
2023-05-13T13:18:53.230Z,35.53
2023-05-13T13:21:21.584Z,35.42
2023-05-13T13:23:48.166Z,35.94
2023-05-13T13:26:14.753Z,36.06
2023-05-13T13:28:41.367Z,36.18
2023-05-13T13:31:08.139Z,36.66
2023-05-13T13:33:34.907Z,35.92
2023-05-13T13:36:01.642Z,35.47
2023-05-13T13:38:28.229Z,35.29
2023-05-13T13:40:54.809Z,35.46
2023-05-13T13:43:21.457Z,35.11
2023-05-13T13:45:48.101Z,34.71
2023-05-13T13:48:14.923Z,35.14
2023-05-13T13:50:41.736Z,35.56
2023-05-13T13:53:08.359Z,35.85
2023-05-13T13:55:34.996Z,35.09
2023-05-13T13:58:01.748Z,35.48
2023-05-13T14:00:28.574Z,36.38
2023-05-13T14:02:55.449Z,36.21
2023-05-13T14:05:22.374Z,35.55
2023-05-13T14:07:51.958Z,34.47
2023-05-13T14:10:18.578Z,34.19
2023-05-13T14:12:45.618Z,34.14
2023-05-13T14:15:12.231Z,34.07
2023-05-13T14:17:38.950Z,33.57
2023-05-13T14:20:06.842Z,34.70
2023-05-13T14:22:33.455Z,34.21
2023-05-13T14:25:00.237Z,34.00
2023-05-13T14:27:27.004Z,33.97
2023-05-13T14:29:53.632Z,34.20
2023-05-13T14:32:20.317Z,32.82
2023-05-13T14:34:46.918Z,32.62
2023-05-13T14:37:13.530Z,32.86
2023-05-13T14:39:40.139Z,33.46
2023-05-13T14:42:07.031Z,33.14
2023-05-13T14:44:33.801Z,34.65
2023-05-13T14:47:01.333Z,35.08
2023-05-13T14:49:28.527Z,35.05
2023-05-13T14:51:55.249Z,34.95
2023-05-13T14:54:22.138Z,35.30
2023-05-13T14:56:48.772Z,35.54
2023-05-13T14:59:15.557Z,36.47
2023-05-13T15:01:42.614Z,36.62
2023-05-13T15:04:09.419Z,36.75
2023-05-13T15:06:36.881Z,36.90
2023-05-13T15:09:03.822Z,37.34
2023-05-13T15:11:30.443Z,36.48
2023-05-13T15:13:57.112Z,36.91
2023-05-13T15:16:23.794Z,36.77
2023-05-13T15:18:50.767Z,36.11
2023-05-13T15:21:17.835Z,35.98
2023-05-13T15:23:45.177Z,36.53
2023-05-13T15:26:11.919Z,36.38
2023-05-13T15:28:38.669Z,36.60
2023-05-13T15:31:05.972Z,36.15
2023-05-13T15:33:32.794Z,35.76
2023-05-13T15:36:00.209Z,35.28
2023-05-13T15:38:27.459Z,35.22
2023-05-13T15:40:54.171Z,35.73
2023-05-13T15:43:20.937Z,35.86
2023-05-13T15:45:47.691Z,36.34
2023-05-13T15:48:14.902Z,36.52
2023-05-13T15:50:41.804Z,36.79
2023-05-13T15:53:08.512Z,37.71
2023-05-13T15:55:37.008Z,38.19
2023-05-13T15:58:03.703Z,38.54
2023-05-13T16:00:31.070Z,38.36
2023-05-13T16:02:57.925Z,38.25
2023-05-13T16:05:24.739Z,38.86
2023-05-13T16:07:51.376Z,39.44
2023-05-13T16:10:18.092Z,39.34
2023-05-13T16:12:44.984Z,40.03
2023-05-13T16:15:11.881Z,40.93
2023-05-13T16:17:38.558Z,41.03
2023-05-13T16:20:06.381Z,41.50
2023-05-13T16:22:34.802Z,41.96
2023-05-13T16:25:05.650Z,42.07
2023-05-13T16:27:32.517Z,42.59
2023-05-13T16:29:59.670Z,42.85
2023-05-13T16:32:26.562Z,43.11
2023-05-13T16:34:53.209Z,43.28
2023-05-13T16:37:19.841Z,43.95
2023-05-13T16:39:46.530Z,44.56
2023-05-13T16:42:13.118Z,45.46
2023-05-13T16:44:39.799Z,46.25
2023-05-13T16:47:07.075Z,47.04
2023-05-13T16:49:33.779Z,47.63
2023-05-13T16:52:00.364Z,48.52
2023-05-13T16:54:26.957Z,48.20
2023-05-13T16:56:53.541Z,48.93
2023-05-13T16:59:22.156Z,49.18
2023-05-13T17:01:49.044Z,49.00
2023-05-13T17:04:16.177Z,49.22
2023-05-13T17:06:43.179Z,48.85
2023-05-13T17:09:10.067Z,49.35
2023-05-13T17:11:36.814Z,49.45
2023-05-13T17:14:04.642Z,49.88
2023-05-13T17:16:31.499Z,50.60
2023-05-13T17:18:59.437Z,51.05
2023-05-13T17:21:26.361Z,51.28
2023-05-13T17:23:53.503Z,52.42
2023-05-13T17:26:22.157Z,52.27
2023-05-13T17:28:49.702Z,52.63
2023-05-13T17:31:16.591Z,53.33
2023-05-13T17:33:43.536Z,53.98
2023-05-13T17:36:10.902Z,54.04
2023-05-13T17:38:37.572Z,53.23
2023-05-13T17:41:04.798Z,54.34
2023-05-13T17:43:31.398Z,54.96
2023-05-13T17:45:58.146Z,55.35
2023-05-13T17:48:25.790Z,55.69
2023-05-13T17:50:52.856Z,55.72
2023-05-13T17:53:19.992Z,56.29
2023-05-13T17:55:48.519Z,57.11
2023-05-13T17:58:15.997Z,57.53
2023-05-13T18:00:42.657Z,57.62
2023-05-13T18:03:09.406Z,57.77
2023-05-13T18:05:36.260Z,58.48
2023-05-13T18:08:02.984Z,58.80
2023-05-13T18:10:29.570Z,59.18
2023-05-13T18:12:56.164Z,61.06
2023-05-13T18:15:22.769Z,61.70
2023-05-13T18:17:49.964Z,61.31
2023-05-13T18:20:17.963Z,61.49
2023-05-13T18:22:44.638Z,61.86
2023-05-13T18:25:11.311Z,61.66
2023-05-13T18:27:37.972Z,61.92
2023-05-13T18:30:06.470Z,62.19
2023-05-13T18:32:33.150Z,62.70
2023-05-13T18:34:59.950Z,62.05
2023-05-13T18:37:26.654Z,62.93
2023-05-13T18:39:53.263Z,63.59
2023-05-13T18:42:19.874Z,64.02
2023-05-13T18:44:46.559Z,64.30
2023-05-13T18:47:13.255Z,64.63
2023-05-13T18:49:39.933Z,64.87
2023-05-13T18:52:07.219Z,64.36
2023-05-13T18:54:33.821Z,64.94
2023-05-13T18:57:00.489Z,65.02
2023-05-13T18:59:27.203Z,64.54
2023-05-13T19:01:53.889Z,64.67
2023-05-13T19:04:20.689Z,65.34
2023-05-13T19:06:47.708Z,66.00
2023-05-13T19:09:14.602Z,66.71
2023-05-13T19:11:41.294Z,66.40
2023-05-13T19:14:07.876Z,66.15
2023-05-13T19:16:34.531Z,66.21
2023-05-13T19:19:01.244Z,66.59
2023-05-13T19:21:28.251Z,66.19
2023-05-13T19:23:54.859Z,67.25
2023-05-13T19:26:21.506Z,69.02
2023-05-13T19:28:48.739Z,69.29
2023-05-13T19:31:15.559Z,69.80
2023-05-13T19:33:44.625Z,70.88
2023-05-13T19:36:12.735Z,72.88
2023-05-13T19:38:39.418Z,73.34
2023-05-13T19:41:06.032Z,73.72
2023-05-13T19:43:32.651Z,74.49
2023-05-13T19:45:59.338Z,75.03
2023-05-13T19:48:27.709Z,75.43
2023-05-13T19:50:57.174Z,75.06
2023-05-13T19:53:23.845Z,76.00
2023-05-13T19:55:50.585Z,76.17
2023-05-13T19:58:17.734Z,76.05
2023-05-13T20:00:44.323Z,76.27
2023-05-13T20:03:11.244Z,76.34
2023-05-13T20:05:39.671Z,77.23
2023-05-13T20:08:07.142Z,77.45
2023-05-13T20:10:37.100Z,77.75
2023-05-13T20:13:04.874Z,78.51
2023-05-13T20:15:31.915Z,78.49
2023-05-13T20:17:58.612Z,78.87
2023-05-13T20:20:25.413Z,79.38
2023-05-13T20:22:52.272Z,79.94
2023-05-13T20:25:18.997Z,80.22
2023-05-13T20:27:45.750Z,80.44
2023-05-13T20:30:13.170Z,80.70
2023-05-13T20:32:39.961Z,80.76
2023-05-13T20:35:07.695Z,81.59
2023-05-13T20:37:34.755Z,83.28
2023-05-13T20:40:01.480Z,84.24
2023-05-13T20:42:28.073Z,85.01
2023-05-13T20:44:54.685Z,85.61
2023-05-13T20:47:21.572Z,86.18
2023-05-13T20:49:48.187Z,87.19
2023-05-13T20:52:14.881Z,87.39
2023-05-13T20:54:41.630Z,87.68
2023-05-13T20:57:08.293Z,86.60
2023-05-13T20:59:35.114Z,86.67
2023-05-13T21:02:01.740Z,86.59
2023-05-13T21:04:28.384Z,86.69
2023-05-13T21:06:55.004Z,86.70
2023-05-13T21:09:21.880Z,86.21
2023-05-13T21:11:49.054Z,84.59
2023-05-13T21:14:15.671Z,84.39
2023-05-13T21:16:42.670Z,84.34
2023-05-13T21:19:18.161Z,84.99
2023-05-13T21:21:44.825Z,85.73
2023-05-13T21:24:11.635Z,86.53
2023-05-13T21:26:38.219Z,86.64
2023-05-13T21:29:04.820Z,86.95
2023-05-13T21:31:31.567Z,86.79
2023-05-13T21:33:58.257Z,86.83
2023-05-13T21:36:24.934Z,87.18
2023-05-13T21:38:51.970Z,87.51
2023-05-13T21:41:22.832Z,87.62
2023-05-13T21:43:49.429Z,87.93
2023-05-13T21:46:16.046Z,88.28
2023-05-13T21:48:42.720Z,88.90
2023-05-13T21:51:09.364Z,90.16
2023-05-13T21:53:35.987Z,91.50
2023-05-13T21:56:03.072Z,92.50
2023-05-13T21:58:29.683Z,93.22
2023-05-13T22:00:56.743Z,93.68
2023-05-13T22:03:23.582Z,94.15
2023-05-13T22:05:50.336Z,94.21
2023-05-13T22:08:16.977Z,94.04
2023-05-13T22:10:44.132Z,94.69
2023-05-13T22:13:11.003Z,95.33
2023-05-13T22:15:37.677Z,96.10
2023-05-13T22:18:04.711Z,96.29
2023-05-13T22:20:31.523Z,95.26
2023-05-13T22:22:58.163Z,93.56
2023-05-13T22:25:24.921Z,93.62
2023-05-13T22:27:51.502Z,92.96
2023-05-13T22:30:18.597Z,93.18
2023-05-13T22:32:45.457Z,93.39
2023-05-13T22:35:12.269Z,93.57
2023-05-13T22:37:38.852Z,94.26
2023-05-13T22:40:06.589Z,94.74
2023-05-13T22:42:33.209Z,94.88
2023-05-13T22:44:59.818Z,94.32
2023-05-13T22:47:26.506Z,94.48
2023-05-13T22:49:53.200Z,94.87
2023-05-13T22:52:19.976Z,95.54
2023-05-13T22:54:46.656Z,96.00
2023-05-13T22:57:13.240Z,96.35
2023-05-13T22:59:39.857Z,96.46
2023-05-13T23:02:06.587Z,96.68
2023-05-13T23:04:33.491Z,96.55
2023-05-13T23:07:00.560Z,96.49
2023-05-13T23:09:27.156Z,96.60
2023-05-13T23:11:54.008Z,96.49
2023-05-13T23:14:20.762Z,96.43
2023-05-13T23:16:47.553Z,96.66
2023-05-13T23:19:14.243Z,96.88
2023-05-13T23:21:40.937Z,97.11
2023-05-13T23:24:07.586Z,97.52
2023-05-13T23:26:34.247Z,97.86
2023-05-13T23:29:00.827Z,97.88
2023-05-13T23:31:27.449Z,98.21
2023-05-13T23:33:54.080Z,98.43
2023-05-13T23:36:20.658Z,98.57
2023-05-13T23:38:47.234Z,98.97
2023-05-13T23:41:13.948Z,99.14
2023-05-13T23:43:40.563Z,99.53
2023-05-13T23:46:07.240Z,100.00
2023-05-13T23:48:34.000Z,100.00
2023-05-13T23:51:00.761Z,100.00
2023-05-13T23:53:27.421Z,100.00
2023-05-13T23:55:54.027Z,100.00
2023-05-13T23:58:20.614Z,100.00
